sensor_id;sensor_type;location;lat;lon;timestamp;P1;durP1;ratioP1;P2;durP2;ratioP2
29816;SDS011;16805;52.956;5.906;2022-08-19T00:00:06;5.68;;;3.67;;
29816;SDS011;16805;52.956;5.906;2022-08-19T00:02:34;7.57;;;3.40;;
29816;SDS011;16805;52.956;5.906;2022-08-19T00:05:02;4.80;;;3.55;;
29816;SDS011;16805;52.956;5.906;2022-08-19T00:07:29;4.50;;;3.97;;
29816;SDS011;16805;52.956;5.906;2022-08-19T00:09:54;4.82;;;3.63;;
29816;SDS011;16805;52.956;5.906;2022-08-19T00:12:21;4.40;;;4.00;;
29816;SDS011;16805;52.956;5.906;2022-08-19T00:14:46;5.78;;;3.60;;
29816;SDS011;16805;52.956;5.906;2022-08-19T00:17:12;5.40;;;3.88;;
29816;SDS011;16805;52.956;5.906;2022-08-19T00:19:37;4.60;;;3.47;;
29816;SDS011;16805;52.956;5.906;2022-08-19T00:22:03;3.83;;;3.53;;
29816;SDS011;16805;52.956;5.906;2022-08-19T00:24:30;4.43;;;3.65;;
29816;SDS011;16805;52.956;5.906;2022-08-19T00:26:57;4.35;;;3.58;;
29816;SDS011;16805;52.956;5.906;2022-08-19T00:29:23;5.00;;;3.70;;
29816;SDS011;16805;52.956;5.906;2022-08-19T00:31:50;4.60;;;3.50;;
29816;SDS011;16805;52.956;5.906;2022-08-19T00:34:19;5.30;;;3.03;;
29816;SDS011;16805;52.956;5.906;2022-08-19T00:36:46;7.78;;;3.25;;
29816;SDS011;16805;52.956;5.906;2022-08-19T00:39:12;6.03;;;3.38;;
29816;SDS011;16805;52.956;5.906;2022-08-19T00:41:39;3.60;;;3.30;;
29816;SDS011;16805;52.956;5.906;2022-08-19T00:44:08;5.28;;;3.13;;
29816;SDS011;16805;52.956;5.906;2022-08-19T00:46:39;4.30;;;2.88;;
29816;SDS011;16805;52.956;5.906;2022-08-19T00:49:09;5.43;;;3.05;;
29816;SDS011;16805;52.956;5.906;2022-08-19T00:51:39;8.10;;;3.55;;
29816;SDS011;16805;52.956;5.906;2022-08-19T00:54:07;4.47;;;3.40;;
29816;SDS011;16805;52.956;5.906;2022-08-19T00:56:34;4.78;;;2.97;;
29816;SDS011;16805;52.956;5.906;2022-08-19T00:59:00;5.07;;;3.22;;
29816;SDS011;16805;52.956;5.906;2022-08-19T01:01:27;7.97;;;3.70;;
29816;SDS011;16805;52.956;5.906;2022-08-19T01:03:52;4.68;;;3.85;;
29816;SDS011;16805;52.956;5.906;2022-08-19T01:06:18;4.40;;;3.30;;
29816;SDS011;16805;52.956;5.906;2022-08-19T01:08:44;3.50;;;3.20;;
29816;SDS011;16805;52.956;5.906;2022-08-19T01:11:09;3.92;;;3.55;;
29816;SDS011;16805;52.956;5.906;2022-08-19T01:13:36;6.60;;;3.40;;
29816;SDS011;16805;52.956;5.906;2022-08-19T01:16:06;4.22;;;3.50;;
29816;SDS011;16805;52.956;5.906;2022-08-19T01:18:36;4.35;;;3.60;;
29816;SDS011;16805;52.956;5.906;2022-08-19T01:21:08;4.07;;;3.67;;
29816;SDS011;16805;52.956;5.906;2022-08-19T01:23:40;5.80;;;3.92;;
29816;SDS011;16805;52.956;5.906;2022-08-19T01:26:08;3.92;;;3.53;;
29816;SDS011;16805;52.956;5.906;2022-08-19T01:28:36;4.72;;;3.50;;
29816;SDS011;16805;52.956;5.906;2022-08-19T01:31:03;4.28;;;3.88;;
29816;SDS011;16805;52.956;5.906;2022-08-19T01:33:29;6.10;;;3.78;;
29816;SDS011;16805;52.956;5.906;2022-08-19T01:36:21;5.57;;;4.22;;
29816;SDS011;16805;52.956;5.906;2022-08-19T01:39:04;4.85;;;4.38;;
29816;SDS011;16805;52.956;5.906;2022-08-19T01:41:32;5.07;;;3.90;;
29816;SDS011;16805;52.956;5.906;2022-08-19T01:43:57;5.60;;;4.50;;
29816;SDS011;16805;52.956;5.906;2022-08-19T01:46:23;5.53;;;4.78;;
29816;SDS011;16805;52.956;5.906;2022-08-19T01:48:49;7.85;;;5.40;;
29816;SDS011;16805;52.956;5.906;2022-08-19T01:51:15;7.85;;;4.93;;
29816;SDS011;16805;52.956;5.906;2022-08-19T01:53:40;5.40;;;4.90;;
29816;SDS011;16805;52.956;5.906;2022-08-19T01:56:06;5.28;;;4.10;;
29816;SDS011;16805;52.956;5.906;2022-08-19T01:58:34;6.03;;;4.90;;
29816;SDS011;16805;52.956;5.906;2022-08-19T02:01:07;6.90;;;5.10;;
29816;SDS011;16805;52.956;5.906;2022-08-19T02:03:33;5.47;;;4.97;;
29816;SDS011;16805;52.956;5.906;2022-08-19T02:06:00;5.43;;;4.85;;
29816;SDS011;16805;52.956;5.906;2022-08-19T02:08:28;5.50;;;5.00;;
29816;SDS011;16805;52.956;5.906;2022-08-19T02:10:54;5.35;;;4.60;;
29816;SDS011;16805;52.956;5.906;2022-08-19T02:13:21;7.75;;;4.93;;
29816;SDS011;16805;52.956;5.906;2022-08-19T02:15:48;6.30;;;5.70;;
29816;SDS011;16805;52.956;5.906;2022-08-19T02:18:14;6.70;;;6.03;;
29816;SDS011;16805;52.956;5.906;2022-08-19T02:20:40;8.75;;;5.35;;
29816;SDS011;16805;52.956;5.906;2022-08-19T02:23:06;6.00;;;5.35;;
29816;SDS011;16805;52.956;5.906;2022-08-19T02:25:33;7.28;;;6.53;;
29816;SDS011;16805;52.956;5.906;2022-08-19T02:27:58;7.45;;;6.13;;
29816;SDS011;16805;52.956;5.906;2022-08-19T02:30:24;6.78;;;5.57;;
29816;SDS011;16805;52.956;5.906;2022-08-19T02:32:51;6.90;;;5.78;;
29816;SDS011;16805;52.956;5.906;2022-08-19T02:35:17;8.60;;;5.90;;
29816;SDS011;16805;52.956;5.906;2022-08-19T02:37:43;6.95;;;6.28;;
29816;SDS011;16805;52.956;5.906;2022-08-19T02:40:28;9.82;;;6.30;;
29816;SDS011;16805;52.956;5.906;2022-08-19T02:42:55;7.78;;;6.97;;
29816;SDS011;16805;52.956;5.906;2022-08-19T02:45:21;8.50;;;6.47;;
29816;SDS011;16805;52.956;5.906;2022-08-19T02:47:47;7.47;;;6.47;;
29816;SDS011;16805;52.956;5.906;2022-08-19T02:50:13;6.65;;;6.05;;
29816;SDS011;16805;52.956;5.906;2022-08-19T02:52:39;11.10;;;6.63;;
29816;SDS011;16805;52.956;5.906;2022-08-19T02:55:05;7.38;;;6.70;;
29816;SDS011;16805;52.956;5.906;2022-08-19T02:57:31;10.90;;;7.20;;
29816;SDS011;16805;52.956;5.906;2022-08-19T02:59:57;8.15;;;6.70;;
29816;SDS011;16805;52.956;5.906;2022-08-19T03:02:23;7.18;;;6.47;;
29816;SDS011;16805;52.956;5.906;2022-08-19T03:04:49;10.88;;;6.35;;
29816;SDS011;16805;52.956;5.906;2022-08-19T03:07:16;8.52;;;7.18;;
29816;SDS011;16805;52.956;5.906;2022-08-19T03:09:43;6.38;;;5.78;;
29816;SDS011;16805;52.956;5.906;2022-08-19T03:12:28;7.40;;;6.70;;
29816;SDS011;16805;52.956;5.906;2022-08-19T03:14:53;7.45;;;5.68;;
29816;SDS011;16805;52.956;5.906;2022-08-19T03:17:19;7.68;;;5.88;;
29816;SDS011;16805;52.956;5.906;2022-08-19T03:19:45;8.52;;;6.50;;
29816;SDS011;16805;52.956;5.906;2022-08-19T03:22:10;6.85;;;6.10;;
29816;SDS011;16805;52.956;5.906;2022-08-19T03:24:37;7.93;;;7.10;;
29816;SDS011;16805;52.956;5.906;2022-08-19T03:27:03;7.15;;;6.45;;
29816;SDS011;16805;52.956;5.906;2022-08-19T03:29:30;8.05;;;7.00;;
29816;SDS011;16805;52.956;5.906;2022-08-19T03:31:58;7.38;;;6.53;;
29816;SDS011;16805;52.956;5.906;2022-08-19T03:34:26;8.70;;;7.97;;
29816;SDS011;16805;52.956;5.906;2022-08-19T03:36:54;9.82;;;8.82;;
29816;SDS011;16805;52.956;5.906;2022-08-19T03:39:22;8.23;;;7.20;;
29816;SDS011;16805;52.956;5.906;2022-08-19T03:41:50;8.48;;;7.68;;
29816;SDS011;16805;52.956;5.906;2022-08-19T03:44:19;9.05;;;8.15;;
29816;SDS011;16805;52.956;5.906;2022-08-19T03:46:51;8.10;;;7.35;;
29816;SDS011;16805;52.956;5.906;2022-08-19T03:49:23;8.63;;;7.15;;
29816;SDS011;16805;52.956;5.906;2022-08-19T03:51:52;8.75;;;6.90;;
29816;SDS011;16805;52.956;5.906;2022-08-19T03:54:20;8.20;;;7.45;;
29816;SDS011;16805;52.956;5.906;2022-08-19T03:56:48;9.20;;;7.55;;
29816;SDS011;16805;52.956;5.906;2022-08-19T03:59:17;9.43;;;8.52;;
29816;SDS011;16805;52.956;5.906;2022-08-19T04:01:50;8.68;;;7.78;;
29816;SDS011;16805;52.956;5.906;2022-08-19T04:04:15;9.27;;;8.35;;
29816;SDS011;16805;52.956;5.906;2022-08-19T04:06:41;9.60;;;8.63;;
29816;SDS011;16805;52.956;5.906;2022-08-19T04:09:09;9.15;;;8.25;;
29816;SDS011;16805;52.956;5.906;2022-08-19T04:11:37;9.15;;;8.15;;
29816;SDS011;16805;52.956;5.906;2022-08-19T04:16:39;9.33;;;7.60;;
29816;SDS011;16805;52.956;5.906;2022-08-19T04:19:06;9.25;;;8.15;;
29816;SDS011;16805;52.956;5.906;2022-08-19T04:21:32;9.18;;;8.27;;
29816;SDS011;16805;52.956;5.906;2022-08-19T04:23:58;8.75;;;7.57;;
29816;SDS011;16805;52.956;5.906;2022-08-19T04:26:28;8.73;;;7.93;;
29816;SDS011;16805;52.956;5.906;2022-08-19T04:28:59;8.70;;;7.90;;
29816;SDS011;16805;52.956;5.906;2022-08-19T04:31:28;9.23;;;8.32;;
29816;SDS011;16805;52.956;5.906;2022-08-19T04:33:56;8.70;;;7.80;;
29816;SDS011;16805;52.956;5.906;2022-08-19T04:36:24;9.32;;;8.35;;
29816;SDS011;16805;52.956;5.906;2022-08-19T04:38:58;7.78;;;7.07;;
29816;SDS011;16805;52.956;5.906;2022-08-19T04:41:30;9.70;;;8.70;;
29816;SDS011;16805;52.956;5.906;2022-08-19T04:44:15;9.02;;;8.13;;
29816;SDS011;16805;52.956;5.906;2022-08-19T04:46:43;9.20;;;8.30;;
29816;SDS011;16805;52.956;5.906;2022-08-19T04:49:09;8.95;;;8.07;;
29816;SDS011;16805;52.956;5.906;2022-08-19T04:51:36;9.10;;;8.20;;
29816;SDS011;16805;52.956;5.906;2022-08-19T04:54:04;9.45;;;8.55;;
29816;SDS011;16805;52.956;5.906;2022-08-19T04:56:30;12.45;;;9.82;;
29816;SDS011;16805;52.956;5.906;2022-08-19T04:58:56;11.15;;;10.00;;
29816;SDS011;16805;52.956;5.906;2022-08-19T05:01:28;12.25;;;9.75;;
29816;SDS011;16805;52.956;5.906;2022-08-19T05:03:55;11.73;;;10.45;;
29816;SDS011;16805;52.956;5.906;2022-08-19T05:09:08;9.40;;;8.30;;
29816;SDS011;16805;52.956;5.906;2022-08-19T05:11:35;11.30;;;10.18;;
29816;SDS011;16805;52.956;5.906;2022-08-19T05:14:04;11.20;;;9.98;;
29816;SDS011;16805;52.956;5.906;2022-08-19T05:16:33;11.20;;;9.10;;
29816;SDS011;16805;52.956;5.906;2022-08-19T05:18:59;9.48;;;8.57;;
29816;SDS011;16805;52.956;5.906;2022-08-19T05:21:44;10.60;;;9.18;;
29816;SDS011;16805;52.956;5.906;2022-08-19T05:24:29;10.00;;;9.05;;
29816;SDS011;16805;52.956;5.906;2022-08-19T05:26:55;10.40;;;9.40;;
29816;SDS011;16805;52.956;5.906;2022-08-19T05:29:22;8.90;;;8.10;;
29816;SDS011;16805;52.956;5.906;2022-08-19T05:31:51;9.75;;;8.85;;
29816;SDS011;16805;52.956;5.906;2022-08-19T05:34:18;10.23;;;9.20;;
29816;SDS011;16805;52.956;5.906;2022-08-19T05:36:47;10.05;;;9.05;;
29816;SDS011;16805;52.956;5.906;2022-08-19T05:39:15;10.00;;;9.02;;
29816;SDS011;16805;52.956;5.906;2022-08-19T05:41:43;10.77;;;9.18;;
29816;SDS011;16805;52.956;5.906;2022-08-19T05:44:11;12.07;;;9.13;;
29816;SDS011;16805;52.956;5.906;2022-08-19T05:46:37;9.43;;;8.52;;
29816;SDS011;16805;52.956;5.906;2022-08-19T05:49:07;10.13;;;8.80;;
29816;SDS011;16805;52.956;5.906;2022-08-19T05:51:34;10.35;;;9.32;;
29816;SDS011;16805;52.956;5.906;2022-08-19T05:54:02;10.45;;;8.73;;
29816;SDS011;16805;52.956;5.906;2022-08-19T05:56:29;10.05;;;9.05;;
29816;SDS011;16805;52.956;5.906;2022-08-19T05:59:01;8.77;;;7.97;;
29816;SDS011;16805;52.956;5.906;2022-08-19T06:01:27;10.05;;;9.07;;
29816;SDS011;16805;52.956;5.906;2022-08-19T06:03:53;14.98;;;9.15;;
29816;SDS011;16805;52.956;5.906;2022-08-19T06:06:19;11.05;;;9.05;;
29816;SDS011;16805;52.956;5.906;2022-08-19T06:08:46;9.10;;;8.30;;
29816;SDS011;16805;52.956;5.906;2022-08-19T06:14:14;9.60;;;8.30;;
29816;SDS011;16805;52.956;5.906;2022-08-19T06:16:42;9.30;;;8.40;;
29816;SDS011;16805;52.956;5.906;2022-08-19T06:19:27;10.45;;;9.07;;
29816;SDS011;16805;52.956;5.906;2022-08-19T06:21:55;9.65;;;8.75;;
29816;SDS011;16805;52.956;5.906;2022-08-19T06:24:23;9.45;;;8.55;;
29816;SDS011;16805;52.956;5.906;2022-08-19T06:26:51;9.82;;;8.82;;
29816;SDS011;16805;52.956;5.906;2022-08-19T06:29:19;10.70;;;8.68;;
29816;SDS011;16805;52.956;5.906;2022-08-19T06:31:48;11.23;;;8.85;;
29816;SDS011;16805;52.956;5.906;2022-08-19T06:34:15;9.85;;;8.95;;
29816;SDS011;16805;52.956;5.906;2022-08-19T06:36:42;9.23;;;8.32;;
29816;SDS011;16805;52.956;5.906;2022-08-19T06:39:11;9.07;;;8.32;;
29816;SDS011;16805;52.956;5.906;2022-08-19T06:41:40;11.02;;;9.77;;
29816;SDS011;16805;52.956;5.906;2022-08-19T06:44:08;10.07;;;9.18;;
29816;SDS011;16805;52.956;5.906;2022-08-19T06:46:34;9.77;;;8.88;;
29816;SDS011;16805;52.956;5.906;2022-08-19T06:49:01;8.85;;;8.05;;
29816;SDS011;16805;52.956;5.906;2022-08-19T06:51:26;9.90;;;9.00;;
29816;SDS011;16805;52.956;5.906;2022-08-19T06:53:53;8.55;;;7.82;;
29816;SDS011;16805;52.956;5.906;2022-08-19T06:56:29;10.40;;;9.40;;
29816;SDS011;16805;52.956;5.906;2022-08-19T06:59:00;9.73;;;8.18;;
29816;SDS011;16805;52.956;5.906;2022-08-19T07:01:36;9.98;;;9.05;;
29816;SDS011;16805;52.956;5.906;2022-08-19T07:04:10;10.93;;;9.82;;
29816;SDS011;16805;52.956;5.906;2022-08-19T07:06:36;10.02;;;9.13;;
29816;SDS011;16805;52.956;5.906;2022-08-19T07:09:03;9.88;;;8.98;;
29816;SDS011;16805;52.956;5.906;2022-08-19T07:11:32;10.07;;;9.18;;
29816;SDS011;16805;52.956;5.906;2022-08-19T07:13:58;10.40;;;9.50;;
29816;SDS011;16805;52.956;5.906;2022-08-19T07:16:25;10.75;;;9.60;;
29816;SDS011;16805;52.956;5.906;2022-08-19T07:18:52;11.15;;;10.23;;
29816;SDS011;16805;52.956;5.906;2022-08-19T07:21:23;9.82;;;9.02;;
29816;SDS011;16805;52.956;5.906;2022-08-19T07:23:52;10.07;;;9.07;;
29816;SDS011;16805;52.956;5.906;2022-08-19T07:26:20;10.77;;;9.77;;
29816;SDS011;16805;52.956;5.906;2022-08-19T07:28:51;10.05;;;9.05;;
29816;SDS011;16805;52.956;5.906;2022-08-19T07:31:18;10.60;;;9.57;;
29816;SDS011;16805;52.956;5.906;2022-08-19T07:33:48;12.90;;;9.87;;
29816;SDS011;16805;52.956;5.906;2022-08-19T07:36:17;11.30;;;10.20;;
29816;SDS011;16805;52.956;5.906;2022-08-19T07:38:46;11.57;;;10.15;;
29816;SDS011;16805;52.956;5.906;2022-08-19T07:41:14;12.20;;;11.07;;
29816;SDS011;16805;52.956;5.906;2022-08-19T07:43:41;11.40;;;10.15;;
29816;SDS011;16805;52.956;5.906;2022-08-19T07:46:08;11.75;;;10.63;;
29816;SDS011;16805;52.956;5.906;2022-08-19T07:48:35;15.20;;;13.68;;
29816;SDS011;16805;52.956;5.906;2022-08-19T07:51:02;14.60;;;13.20;;
29816;SDS011;16805;52.956;5.906;2022-08-19T07:53:31;14.80;;;13.50;;
29816;SDS011;16805;52.956;5.906;2022-08-19T07:55:57;14.43;;;13.13;;
29816;SDS011;16805;52.956;5.906;2022-08-19T07:58:26;16.35;;;14.68;;
29816;SDS011;16805;52.956;5.906;2022-08-19T08:00:52;14.73;;;13.38;;
29816;SDS011;16805;52.956;5.906;2022-08-19T08:03:19;16.48;;;14.35;;
29816;SDS011;16805;52.956;5.906;2022-08-19T08:05:45;17.00;;;15.27;;
29816;SDS011;16805;52.956;5.906;2022-08-19T08:08:30;15.73;;;14.07;;
29816;SDS011;16805;52.956;5.906;2022-08-19T08:10:56;16.48;;;14.60;;
29816;SDS011;16805;52.956;5.906;2022-08-19T08:13:22;16.67;;;15.18;;
29816;SDS011;16805;52.956;5.906;2022-08-19T08:15:48;16.38;;;14.35;;
29816;SDS011;16805;52.956;5.906;2022-08-19T08:18:14;17.48;;;15.98;;
29816;SDS011;16805;52.956;5.906;2022-08-19T08:20:40;16.67;;;15.07;;
29816;SDS011;16805;52.956;5.906;2022-08-19T08:23:06;20.10;;;17.35;;
29816;SDS011;16805;52.956;5.906;2022-08-19T08:25:50;19.88;;;15.93;;
29816;SDS011;16805;52.956;5.906;2022-08-19T08:28:18;17.90;;;16.30;;
29816;SDS011;16805;52.956;5.906;2022-08-19T08:30:45;17.85;;;16.20;;
29816;SDS011;16805;52.956;5.906;2022-08-19T08:33:13;14.32;;;12.85;;
29816;SDS011;16805;52.956;5.906;2022-08-19T08:35:42;14.95;;;13.45;;
29816;SDS011;16805;52.956;5.906;2022-08-19T08:38:07;13.80;;;12.45;;
29816;SDS011;16805;52.956;5.906;2022-08-19T08:40:46;17.90;;;12.25;;
29816;SDS011;16805;52.956;5.906;2022-08-19T08:43:32;16.33;;;11.65;;
29816;SDS011;16805;52.956;5.906;2022-08-19T08:46:01;19.77;;;13.15;;
29816;SDS011;16805;52.956;5.906;2022-08-19T08:51:11;16.33;;;12.13;;
29816;SDS011;16805;52.956;5.906;2022-08-19T08:53:42;16.10;;;11.48;;
29816;SDS011;16805;52.956;5.906;2022-08-19T08:56:10;13.40;;;11.98;;
29816;SDS011;16805;52.956;5.906;2022-08-19T09:01:33;12.68;;;11.25;;
29816;SDS011;16805;52.956;5.906;2022-08-19T09:03:58;11.05;;;9.95;;
29816;SDS011;16805;52.956;5.906;2022-08-19T09:09:16;10.00;;;8.90;;
29816;SDS011;16805;52.956;5.906;2022-08-19T09:17:28;13.82;;;12.52;;
29816;SDS011;16805;52.956;5.906;2022-08-19T09:22:35;16.70;;;11.60;;
29816;SDS011;16805;52.956;5.906;2022-08-19T09:25:02;15.95;;;11.10;;
29816;SDS011;16805;52.956;5.906;2022-08-19T09:27:30;11.52;;;9.68;;
29816;SDS011;16805;52.956;5.906;2022-08-19T09:29:57;10.93;;;9.73;;
29816;SDS011;16805;52.956;5.906;2022-08-19T09:32:23;11.77;;;10.18;;
29816;SDS011;16805;52.956;5.906;2022-08-19T09:34:49;10.20;;;9.20;;
29816;SDS011;16805;52.956;5.906;2022-08-19T09:37:14;11.63;;;9.25;;
29816;SDS011;16805;52.956;5.906;2022-08-19T09:39:40;13.65;;;10.00;;
29816;SDS011;16805;52.956;5.906;2022-08-19T09:42:07;13.60;;;9.80;;
29816;SDS011;16805;52.956;5.906;2022-08-19T09:44:39;11.95;;;8.80;;
29816;SDS011;16805;52.956;5.906;2022-08-19T09:47:05;9.90;;;8.98;;
29816;SDS011;16805;52.956;5.906;2022-08-19T09:49:31;10.25;;;9.02;;
29816;SDS011;16805;52.956;5.906;2022-08-19T09:51:58;12.23;;;8.20;;
29816;SDS011;16805;52.956;5.906;2022-08-19T09:54:24;13.75;;;10.88;;
29816;SDS011;16805;52.956;5.906;2022-08-19T09:56:50;10.73;;;8.40;;
29816;SDS011;16805;52.956;5.906;2022-08-19T09:59:16;9.10;;;8.15;;
29816;SDS011;16805;52.956;5.906;2022-08-19T10:01:42;12.13;;;8.90;;
29816;SDS011;16805;52.956;5.906;2022-08-19T10:04:08;8.98;;;8.02;;
29816;SDS011;16805;52.956;5.906;2022-08-19T10:06:35;8.93;;;7.95;;
29816;SDS011;16805;52.956;5.906;2022-08-19T10:09:03;10.63;;;7.75;;
29816;SDS011;16805;52.956;5.906;2022-08-19T10:11:31;13.45;;;7.07;;
29816;SDS011;16805;52.956;5.906;2022-08-19T10:13:58;11.45;;;8.38;;
29816;SDS011;16805;52.956;5.906;2022-08-19T10:16:24;15.68;;;9.57;;
29816;SDS011;16805;52.956;5.906;2022-08-19T10:18:50;9.43;;;8.55;;
29816;SDS011;16805;52.956;5.906;2022-08-19T10:21:35;9.90;;;8.90;;
29816;SDS011;16805;52.956;5.906;2022-08-19T10:24:02;12.20;;;9.25;;
29816;SDS011;16805;52.956;5.906;2022-08-19T10:26:31;9.50;;;8.30;;
29816;SDS011;16805;52.956;5.906;2022-08-19T10:29:06;10.57;;;8.95;;
29816;SDS011;16805;52.956;5.906;2022-08-19T10:31:33;10.32;;;9.35;;
29816;SDS011;16805;52.956;5.906;2022-08-19T10:33:59;18.38;;;9.75;;
29816;SDS011;16805;52.956;5.906;2022-08-19T10:36:26;12.45;;;9.93;;
29816;SDS011;16805;52.956;5.906;2022-08-19T10:38:58;8.40;;;7.60;;
29816;SDS011;16805;52.956;5.906;2022-08-19T10:41:27;10.98;;;8.88;;
29816;SDS011;16805;52.956;5.906;2022-08-19T10:43:57;10.23;;;8.95;;
29816;SDS011;16805;52.956;5.906;2022-08-19T10:46:25;11.75;;;10.55;;
29816;SDS011;16805;52.956;5.906;2022-08-19T10:48:52;12.35;;;9.52;;
29816;SDS011;16805;52.956;5.906;2022-08-19T10:51:19;10.93;;;9.82;;
29816;SDS011;16805;52.956;5.906;2022-08-19T10:54:05;15.90;;;10.32;;
29816;SDS011;16805;52.956;5.906;2022-08-19T10:56:31;12.75;;;10.50;;
29816;SDS011;16805;52.956;5.906;2022-08-19T10:59:16;16.35;;;10.10;;
29816;SDS011;16805;52.956;5.906;2022-08-19T11:01:54;12.57;;;9.98;;
29816;SDS011;16805;52.956;5.906;2022-08-19T11:04:24;10.88;;;9.52;;
29816;SDS011;16805;52.956;5.906;2022-08-19T11:06:49;8.50;;;7.55;;
29816;SDS011;16805;52.956;5.906;2022-08-19T11:09:20;14.00;;;9.95;;
29816;SDS011;16805;52.956;5.906;2022-08-19T11:11:49;9.43;;;8.25;;
29816;SDS011;16805;52.956;5.906;2022-08-19T11:14:16;11.02;;;9.00;;
29816;SDS011;16805;52.956;5.906;2022-08-19T11:16:46;15.70;;;9.02;;
29816;SDS011;16805;52.956;5.906;2022-08-19T11:19:14;12.45;;;11.10;;
29816;SDS011;16805;52.956;5.906;2022-08-19T11:21:42;13.98;;;9.30;;
29816;SDS011;16805;52.956;5.906;2022-08-19T11:24:19;15.73;;;11.32;;
29816;SDS011;16805;52.956;5.906;2022-08-19T11:26:47;13.68;;;11.85;;
29816;SDS011;16805;52.956;5.906;2022-08-19T11:29:15;19.70;;;12.02;;
29816;SDS011;16805;52.956;5.906;2022-08-19T11:31:44;12.52;;;10.05;;
29816;SDS011;16805;52.956;5.906;2022-08-19T11:34:12;12.48;;;11.05;;
29816;SDS011;16805;52.956;5.906;2022-08-19T11:36:44;14.13;;;11.52;;
29816;SDS011;16805;52.956;5.906;2022-08-19T11:39:13;16.38;;;14.52;;
29816;SDS011;16805;52.956;5.906;2022-08-19T11:41:41;15.15;;;12.15;;
29816;SDS011;16805;52.956;5.906;2022-08-19T11:44:06;21.75;;;13.63;;
29816;SDS011;16805;52.956;5.906;2022-08-19T11:46:35;17.35;;;14.25;;
29816;SDS011;16805;52.956;5.906;2022-08-19T11:49:02;16.40;;;14.40;;
29816;SDS011;16805;52.956;5.906;2022-08-19T11:51:30;17.60;;;15.70;;
29816;SDS011;16805;52.956;5.906;2022-08-19T11:53:56;16.33;;;14.45;;
29816;SDS011;16805;52.956;5.906;2022-08-19T11:56:23;17.20;;;15.40;;
29816;SDS011;16805;52.956;5.906;2022-08-19T11:58:50;16.80;;;14.10;;
29816;SDS011;16805;52.956;5.906;2022-08-19T12:01:18;20.05;;;14.77;;
29816;SDS011;16805;52.956;5.906;2022-08-19T12:03:47;16.08;;;12.27;;
29816;SDS011;16805;52.956;5.906;2022-08-19T12:06:15;16.10;;;12.38;;
29816;SDS011;16805;52.956;5.906;2022-08-19T12:08:44;14.38;;;10.93;;
29816;SDS011;16805;52.956;5.906;2022-08-19T12:11:12;12.18;;;10.98;;
29816;SDS011;16805;52.956;5.906;2022-08-19T12:13:39;14.30;;;11.52;;
29816;SDS011;16805;52.956;5.906;2022-08-19T12:16:25;12.10;;;10.15;;
29816;SDS011;16805;52.956;5.906;2022-08-19T12:18:53;10.73;;;9.63;;
29816;SDS011;16805;52.956;5.906;2022-08-19T12:21:21;12.43;;;11.23;;
29816;SDS011;16805;52.956;5.906;2022-08-19T12:23:50;13.57;;;8.68;;
29816;SDS011;16805;52.956;5.906;2022-08-19T12:26:16;13.57;;;9.88;;
29816;SDS011;16805;52.956;5.906;2022-08-19T12:28:43;14.23;;;10.18;;
29816;SDS011;16805;52.956;5.906;2022-08-19T12:31:09;12.43;;;9.50;;
29816;SDS011;16805;52.956;5.906;2022-08-19T12:33:37;9.95;;;8.98;;
29816;SDS011;16805;52.956;5.906;2022-08-19T12:36:04;13.02;;;8.63;;
29816;SDS011;16805;52.956;5.906;2022-08-19T12:38:50;11.80;;;9.60;;
29816;SDS011;16805;52.956;5.906;2022-08-19T12:41:17;16.80;;;9.75;;
29816;SDS011;16805;52.956;5.906;2022-08-19T12:43:43;15.30;;;9.00;;
29816;SDS011;16805;52.956;5.906;2022-08-19T12:46:10;10.45;;;7.63;;
29816;SDS011;16805;52.956;5.906;2022-08-19T12:48:37;11.93;;;8.00;;
29816;SDS011;16805;52.956;5.906;2022-08-19T12:51:07;8.10;;;7.30;;
29816;SDS011;16805;52.956;5.906;2022-08-19T12:53:35;12.40;;;7.57;;
29816;SDS011;16805;52.956;5.906;2022-08-19T12:56:01;15.52;;;11.80;;
29816;SDS011;16805;52.956;5.906;2022-08-19T12:58:27;12.38;;;10.52;;
29816;SDS011;16805;52.956;5.906;2022-08-19T13:00:54;12.93;;;10.93;;
29816;SDS011;16805;52.956;5.906;2022-08-19T13:03:20;13.73;;;10.65;;
29816;SDS011;16805;52.956;5.906;2022-08-19T13:05:50;12.32;;;11.05;;
29816;SDS011;16805;52.956;5.906;2022-08-19T13:08:16;13.57;;;12.05;;
29816;SDS011;16805;52.956;5.906;2022-08-19T13:10:42;13.32;;;10.85;;
29816;SDS011;16805;52.956;5.906;2022-08-19T13:13:08;15.13;;;9.38;;
29816;SDS011;16805;52.956;5.906;2022-08-19T13:15:35;3.25;;;2.10;;
29816;SDS011;16805;52.956;5.906;2022-08-19T13:18:02;1.73;;;1.10;;
29816;SDS011;16805;52.956;5.906;2022-08-19T13:20:47;1.98;;;1.10;;
29816;SDS011;16805;52.956;5.906;2022-08-19T13:23:12;2.10;;;1.38;;
29816;SDS011;16805;52.956;5.906;2022-08-19T13:25:38;2.05;;;1.00;;
29816;SDS011;16805;52.956;5.906;2022-08-19T13:28:03;3.10;;;1.45;;
29816;SDS011;16805;52.956;5.906;2022-08-19T13:30:31;2.58;;;1.60;;
29816;SDS011;16805;52.956;5.906;2022-08-19T13:33:16;5.22;;;2.10;;
29816;SDS011;16805;52.956;5.906;2022-08-19T13:35:46;3.15;;;1.83;;
29816;SDS011;16805;52.956;5.906;2022-08-19T13:38:22;2.80;;;2.03;;
29816;SDS011;16805;52.956;5.906;2022-08-19T13:40:48;5.38;;;2.58;;
29816;SDS011;16805;52.956;5.906;2022-08-19T13:43:16;3.67;;;3.10;;
29816;SDS011;16805;52.956;5.906;2022-08-19T13:45:42;4.40;;;3.38;;
29816;SDS011;16805;52.956;5.906;2022-08-19T13:48:08;6.15;;;3.55;;
29816;SDS011;16805;52.956;5.906;2022-08-19T13:50:38;5.63;;;4.28;;
29816;SDS011;16805;52.956;5.906;2022-08-19T13:53:07;4.93;;;4.50;;
29816;SDS011;16805;52.956;5.906;2022-08-19T13:55:35;8.80;;;6.72;;
29816;SDS011;16805;52.956;5.906;2022-08-19T13:58:05;10.45;;;9.30;;
29816;SDS011;16805;52.956;5.906;2022-08-19T14:00:34;15.63;;;9.82;;
29816;SDS011;16805;52.956;5.906;2022-08-19T14:03:02;14.38;;;10.48;;
29816;SDS011;16805;52.956;5.906;2022-08-19T14:05:28;15.13;;;10.18;;
29816;SDS011;16805;52.956;5.906;2022-08-19T14:07:55;11.05;;;9.57;;
29816;SDS011;16805;52.956;5.906;2022-08-19T14:10:21;11.35;;;9.65;;
29816;SDS011;16805;52.956;5.906;2022-08-19T14:12:48;13.57;;;8.98;;
29816;SDS011;16805;52.956;5.906;2022-08-19T14:15:14;10.90;;;9.43;;
29816;SDS011;16805;52.956;5.906;2022-08-19T14:17:42;9.70;;;8.75;;
29816;SDS011;16805;52.956;5.906;2022-08-19T14:20:09;9.25;;;8.30;;
29816;SDS011;16805;52.956;5.906;2022-08-19T14:22:36;9.35;;;7.78;;
29816;SDS011;16805;52.956;5.906;2022-08-19T14:25:03;12.68;;;9.55;;
29816;SDS011;16805;52.956;5.906;2022-08-19T14:27:32;8.40;;;7.55;;
29816;SDS011;16805;52.956;5.906;2022-08-19T14:30:03;15.30;;;9.95;;
29816;SDS011;16805;52.956;5.906;2022-08-19T14:32:31;12.68;;;9.43;;
29816;SDS011;16805;52.956;5.906;2022-08-19T14:35:16;21.05;;;8.77;;
29816;SDS011;16805;52.956;5.906;2022-08-19T14:37:43;10.82;;;8.65;;
29816;SDS011;16805;52.956;5.906;2022-08-19T14:40:09;10.00;;;8.00;;
29816;SDS011;16805;52.956;5.906;2022-08-19T14:42:36;8.00;;;7.05;;
29816;SDS011;16805;52.956;5.906;2022-08-19T14:45:02;8.90;;;6.65;;
29816;SDS011;16805;52.956;5.906;2022-08-19T14:47:30;9.02;;;7.47;;
29816;SDS011;16805;52.956;5.906;2022-08-19T14:49:56;7.78;;;6.97;;
29816;SDS011;16805;52.956;5.906;2022-08-19T14:52:21;15.48;;;7.80;;
29816;SDS011;16805;52.956;5.906;2022-08-19T14:54:47;11.00;;;7.25;;
29816;SDS011;16805;52.956;5.906;2022-08-19T14:57:13;14.82;;;7.88;;
29816;SDS011;16805;52.956;5.906;2022-08-19T14:59:40;8.88;;;7.82;;
29816;SDS011;16805;52.956;5.906;2022-08-19T15:02:07;9.52;;;8.68;;
29816;SDS011;16805;52.956;5.906;2022-08-19T15:04:32;9.18;;;7.85;;
29816;SDS011;16805;52.956;5.906;2022-08-19T15:06:58;11.95;;;8.30;;
29816;SDS011;16805;52.956;5.906;2022-08-19T15:09:24;10.27;;;8.63;;